createdAt,value
2023-02-01T00:04:38.279Z,100.00
2023-02-01T00:09:40.363Z,100.00
2023-02-01T00:14:42.566Z,100.00
2023-02-01T00:19:44.859Z,100.00
2023-02-01T00:24:47.034Z,100.00
2023-02-01T00:29:49.626Z,100.00
2023-02-01T00:34:52.006Z,100.00
2023-02-01T00:39:56.868Z,100.00
2023-02-01T00:44:59.191Z,100.00
2023-02-01T00:50:01.523Z,100.00
2023-02-01T00:55:04.028Z,100.00
2023-02-01T01:00:07.399Z,100.00
2023-02-01T01:05:09.638Z,100.00
2023-02-01T01:10:12.990Z,100.00
2023-02-01T01:15:15.139Z,100.00
2023-02-01T01:20:17.890Z,100.00
2023-02-01T01:25:20.271Z,100.00
2023-02-01T01:30:23.488Z,100.00
2023-02-01T01:35:25.823Z,100.00
2023-02-01T01:40:29.044Z,100.00
2023-02-01T01:45:36.749Z,100.00
2023-02-01T01:51:13.485Z,100.00
2023-02-01T01:56:16.629Z,100.00
2023-02-01T02:01:18.802Z,100.00
2023-02-01T02:06:39.153Z,100.00
2023-02-01T02:11:41.944Z,100.00
2023-02-01T02:16:59.413Z,100.00
2023-02-01T02:22:36.168Z,100.00
2023-02-01T02:28:06.320Z,100.00
2023-02-01T02:33:38.867Z,100.00
2023-02-01T02:38:56.176Z,100.00
2023-02-01T02:44:18.822Z,100.00
2023-02-01T02:49:35.663Z,100.00
2023-02-01T02:54:47.576Z,100.00
2023-02-01T03:00:10.427Z,100.00
2023-02-01T03:05:13.552Z,98.25
2023-02-01T03:10:25.828Z,97.99
2023-02-01T03:15:55.169Z,98.05
2023-02-01T03:21:00.900Z,96.83
2023-02-01T03:26:05.048Z,96.99
2023-02-01T03:31:07.981Z,95.91
2023-02-01T03:36:28.146Z,95.47
2023-02-01T03:41:42.322Z,95.19
2023-02-01T03:47:08.773Z,97.05
2023-02-01T03:52:16.639Z,96.28
2023-02-01T03:57:27.708Z,97.40
2023-02-01T04:02:30.304Z,95.73
2023-02-01T04:07:33.256Z,94.32
2023-02-01T04:12:35.376Z,93.25
2023-02-01T04:22:38.312Z,93.64
2023-02-01T04:27:43.315Z,91.75
2023-02-01T04:32:45.634Z,91.82
2023-02-01T04:55:02.218Z,88.88
2023-02-01T05:00:05.111Z,90.16
2023-02-01T05:05:07.586Z,89.49
2023-02-01T05:10:10.212Z,90.57
2023-02-01T05:15:12.293Z,90.80
2023-02-01T05:20:14.413Z,91.80
2023-02-01T05:25:16.459Z,92.32
2023-02-01T05:30:18.706Z,91.16
2023-02-01T05:35:22.453Z,92.38
2023-02-01T05:40:24.965Z,92.45
2023-02-01T05:45:27.258Z,92.25
2023-02-01T05:50:29.524Z,90.91
2023-02-01T05:55:33.965Z,90.55
2023-02-01T06:00:36.257Z,89.45
2023-02-01T06:05:38.411Z,92.61
2023-02-01T06:10:40.824Z,89.47
2023-02-01T06:15:45.226Z,90.00
2023-02-01T06:21:01.277Z,90.20
2023-02-01T06:26:06.333Z,90.18
2023-02-01T06:31:08.973Z,88.42
2023-02-01T06:36:13.522Z,88.54
2023-02-01T06:41:16.591Z,88.59
2023-02-01T06:46:19.225Z,90.51
2023-02-01T06:51:26.526Z,90.17
2023-02-01T06:56:29.286Z,89.43
2023-02-01T07:01:31.582Z,90.05
2023-02-01T07:06:33.683Z,87.08
2023-02-01T07:11:35.826Z,87.49
2023-02-01T07:16:38.598Z,86.82
2023-02-01T07:21:40.861Z,86.67
2023-02-01T07:26:42.962Z,85.17
2023-02-01T07:31:45.158Z,84.23
2023-02-01T07:36:47.363Z,85.55
2023-02-01T07:41:49.789Z,86.42
2023-02-01T07:46:52.245Z,85.38
2023-02-01T07:51:54.622Z,83.37
2023-02-01T07:56:57.425Z,83.44
2023-02-01T08:01:59.541Z,82.28
2023-02-01T08:07:01.640Z,82.23
2023-02-01T08:12:03.992Z,81.97
2023-02-01T08:17:06.339Z,82.76
2023-02-01T08:22:08.541Z,84.75
2023-02-01T08:27:10.661Z,83.17
2023-02-01T08:32:12.930Z,84.40
2023-02-01T08:37:15.098Z,85.38
2023-02-01T08:42:36.779Z,82.07
2023-02-01T08:47:38.908Z,79.70
2023-02-01T08:52:41.160Z,79.70
2023-02-01T08:57:43.782Z,81.58
2023-02-01T09:02:46.372Z,81.74
2023-02-01T09:07:48.521Z,82.16
2023-02-01T09:12:50.752Z,81.80
2023-02-01T09:17:53.045Z,81.14
2023-02-01T09:22:56.967Z,81.13
2023-02-01T09:27:59.238Z,78.60
2023-02-01T09:33:01.332Z,79.90
2023-02-01T09:38:03.497Z,80.21
2023-02-01T09:43:08.702Z,79.17
2023-02-01T09:48:19.291Z,73.98
2023-02-01T09:53:36.327Z,64.42
2023-02-01T09:58:46.071Z,67.30
2023-02-01T10:03:48.629Z,69.81
2023-02-01T10:09:16.761Z,68.06
2023-02-01T10:14:55.423Z,64.68
2023-02-01T10:20:09.177Z,57.73
2023-02-01T10:25:24.810Z,50.55
2023-02-01T10:30:40.759Z,44.70
2023-02-01T10:35:46.399Z,44.34
2023-02-01T10:40:48.851Z,41.98
2023-02-01T10:45:51.243Z,42.22
2023-02-01T10:51:08.215Z,44.09
2023-02-01T10:56:12.306Z,45.80
2023-02-01T11:01:21.252Z,49.84
2023-02-01T11:06:23.523Z,53.05
2023-02-01T11:27:40.291Z,49.31
2023-02-01T11:32:50.087Z,52.59
2023-02-01T11:38:00.109Z,54.22
2023-02-01T11:43:08.190Z,54.34
2023-02-01T11:48:26.257Z,54.22
2023-02-01T11:53:44.676Z,55.30
2023-02-01T11:58:50.155Z,55.30
2023-02-01T12:04:04.399Z,54.93
2023-02-01T12:09:27.537Z,55.70
2023-02-01T12:14:54.654Z,54.44
2023-02-01T12:20:03.600Z,56.54
2023-02-01T12:25:24.584Z,57.96
2023-02-01T12:30:51.157Z,58.62
2023-02-01T12:36:12.543Z,58.12
2023-02-01T12:41:22.010Z,57.36
2023-02-01T12:46:39.494Z,58.05
2023-02-01T12:51:46.762Z,59.14
2023-02-01T12:57:14.039Z,57.85
2023-02-01T13:02:22.360Z,57.16
2023-02-01T13:07:36.524Z,57.06
2023-02-01T13:12:50.657Z,56.77
2023-02-01T13:17:56.005Z,58.46
2023-02-01T13:23:06.470Z,59.99
2023-02-01T13:28:19.186Z,59.43
2023-02-01T13:33:55.219Z,58.72
2023-02-01T13:39:02.871Z,59.44
2023-02-01T13:44:22.180Z,59.64
2023-02-01T13:49:30.209Z,61.96
2023-02-01T13:54:39.539Z,61.82
2023-02-01T13:59:42.019Z,62.28
2023-02-01T14:04:50.234Z,63.99
2023-02-01T14:09:52.418Z,63.21
2023-02-01T14:15:26.057Z,62.69
2023-02-01T14:20:50.292Z,62.51
2023-02-01T14:42:25.331Z,59.37
2023-02-01T14:47:32.112Z,59.15
2023-02-01T14:52:48.168Z,59.93
2023-02-01T14:57:54.250Z,61.23
2023-02-01T15:03:34.672Z,62.70
2023-02-01T15:08:40.772Z,63.37
2023-02-01T15:13:52.985Z,64.28
2023-02-01T15:19:11.029Z,64.45
2023-02-01T15:24:15.940Z,63.39
2023-02-01T15:29:19.658Z,62.73
2023-02-01T15:34:22.669Z,63.35
2023-02-01T15:39:30.881Z,62.56
2023-02-01T15:44:43.874Z,62.32
2023-02-01T15:49:51.834Z,61.96
2023-02-01T15:54:57.886Z,62.65
2023-02-01T16:00:20.176Z,61.18
2023-02-01T16:05:44.594Z,61.51
2023-02-01T16:10:49.648Z,60.97
2023-02-01T16:15:52.126Z,61.40
2023-02-01T16:20:54.559Z,60.90
2023-02-01T16:25:56.663Z,64.94
2023-02-01T16:30:59.174Z,73.84
2023-02-01T16:36:03.358Z,66.50
2023-02-01T16:41:06.821Z,81.61
2023-02-01T16:46:16.543Z,73.96
2023-02-01T16:51:18.956Z,90.72
2023-02-01T16:56:30.403Z,85.70
2023-02-01T17:01:32.838Z,93.72
2023-02-01T17:06:40.500Z,68.15
2023-02-01T17:11:42.823Z,72.22
2023-02-01T17:16:48.432Z,67.89
2023-02-01T17:21:55.157Z,75.36
2023-02-01T17:26:58.081Z,69.99
2023-02-01T17:32:01.643Z,68.45
2023-02-01T17:37:16.929Z,65.97
2023-02-01T17:42:19.196Z,64.64
2023-02-01T17:47:21.528Z,66.01
2023-02-01T17:52:26.406Z,64.52
2023-02-01T17:57:28.654Z,64.77
2023-02-01T18:02:30.928Z,65.75
2023-02-01T18:07:33.094Z,64.67
2023-02-01T18:12:37.142Z,66.15
2023-02-01T18:17:40.512Z,65.61
2023-02-01T18:22:43.595Z,65.99
2023-02-01T18:27:45.813Z,63.71
2023-02-01T18:32:49.480Z,63.98
2023-02-01T18:37:53.696Z,64.13
2023-02-01T18:42:56.455Z,63.49
2023-02-01T18:48:02.404Z,63.26
2023-02-01T18:53:07.466Z,64.20
2023-02-01T18:58:17.674Z,67.88
2023-02-01T19:03:20.452Z,71.35
2023-02-01T19:08:24.862Z,77.36
2023-02-01T19:13:31.593Z,80.16
2023-02-01T19:18:34.222Z,82.67
2023-02-01T19:23:39.423Z,85.62
2023-02-01T19:28:44.940Z,86.76
2023-02-01T19:33:47.451Z,86.83
2023-02-01T19:38:49.642Z,87.87
2023-02-01T19:43:52.038Z,89.39
2023-02-01T19:48:54.637Z,90.97
2023-02-01T19:53:57.134Z,91.75
2023-02-01T19:58:59.630Z,92.32
2023-02-01T20:04:06.353Z,92.79
2023-02-01T20:09:08.541Z,94.03
2023-02-01T20:14:10.724Z,95.65
2023-02-01T20:19:13.225Z,98.28
2023-02-01T20:24:17.928Z,100.00
2023-02-01T20:29:21.069Z,100.00
2023-02-01T20:34:23.955Z,100.00
2023-02-01T20:39:26.241Z,100.00
2023-02-01T20:44:28.715Z,100.00
2023-02-01T20:49:31.341Z,100.00
2023-02-01T20:54:33.422Z,100.00
2023-02-01T20:59:35.768Z,100.00
2023-02-01T21:04:37.983Z,100.00
2023-02-01T21:09:41.804Z,100.00
2023-02-01T21:14:44.251Z,100.00
2023-02-01T21:19:46.345Z,100.00
2023-02-01T21:24:48.557Z,100.00
2023-02-01T21:29:50.641Z,100.00
2023-02-01T21:34:53.015Z,100.00
2023-02-01T21:39:56.727Z,100.00
2023-02-01T21:44:59.731Z,100.00
2023-02-01T21:50:01.805Z,100.00
2023-02-01T21:55:05.815Z,100.00
2023-02-01T22:00:09.539Z,100.00
2023-02-01T22:05:11.893Z,100.00
2023-02-01T22:10:14.298Z,100.00
2023-02-01T22:15:16.555Z,100.00
2023-02-01T22:20:18.639Z,100.00
2023-02-01T22:25:20.851Z,100.00
2023-02-01T22:30:23.275Z,100.00
2023-02-01T22:35:25.804Z,100.00
2023-02-01T22:40:28.206Z,100.00
2023-02-01T22:45:30.531Z,100.00
2023-02-01T22:50:32.607Z,100.00
2023-02-01T22:55:36.399Z,100.00
2023-02-01T23:00:38.789Z,100.00
2023-02-01T23:05:40.906Z,100.00
2023-02-01T23:10:43.044Z,100.00
2023-02-01T23:15:45.188Z,100.00
2023-02-01T23:20:47.512Z,100.00
2023-02-01T23:25:51.609Z,100.00
2023-02-01T23:30:54.252Z,100.00
2023-02-01T23:35:58.799Z,100.00
2023-02-01T23:41:04.470Z,100.00
2023-02-01T23:46:06.835Z,100.00
2023-02-01T23:51:09.551Z,100.00
2023-02-01T23:56:33.436Z,100.00
